createdAt,value
2019-02-23T08:41:45.550Z,1029.53
2019-02-23T08:42:44.890Z,1029.55
2019-02-23T08:43:44.859Z,1029.53
2019-02-23T08:44:44.826Z,1029.48
2019-02-23T08:45:44.795Z,1029.50
2019-02-23T08:46:44.764Z,1029.52
2019-02-23T08:47:45.091Z,1029.49
2019-02-23T08:48:44.721Z,1029.57
2019-02-23T08:49:44.668Z,1029.42
2019-02-23T08:50:44.635Z,1029.43
2019-02-23T08:51:44.603Z,1029.50
2019-02-23T08:52:49.226Z,1029.47
2019-02-23T08:53:44.541Z,1029.42
2019-02-23T08:54:44.511Z,1029.41
2019-02-23T08:55:44.491Z,1029.41
2019-02-23T08:56:44.660Z,1029.40
2019-02-23T08:57:44.418Z,1029.45
2019-02-23T08:58:44.386Z,1029.38
2019-02-23T08:59:44.361Z,1029.46
2019-02-23T09:00:44.327Z,1029.43
2019-02-23T09:01:44.297Z,1029.46
2019-02-23T09:02:44.265Z,1029.42
2019-02-23T09:03:44.236Z,1029.47
2019-02-23T09:04:44.202Z,1029.38
2019-02-23T09:05:44.179Z,1029.45
2019-02-23T09:06:44.147Z,1029.39
2019-02-23T09:07:44.118Z,1029.38
2019-02-23T09:08:44.215Z,1029.40
2019-02-23T09:09:44.060Z,1029.43
2019-02-23T09:10:44.027Z,1029.50
2019-02-23T09:11:43.997Z,1029.36
2019-02-23T09:12:43.970Z,1029.45
2019-02-23T09:13:43.940Z,1029.50
2019-02-23T09:14:43.911Z,1029.47
2019-02-23T09:15:43.880Z,1029.54
2019-02-23T09:16:43.850Z,1029.49
2019-02-23T09:17:43.822Z,1029.38
2019-02-23T09:18:43.789Z,1029.38
2019-02-23T09:19:43.761Z,1029.31
2019-02-23T09:20:43.729Z,1029.44
2019-02-23T09:21:43.702Z,1029.42
2019-02-23T09:22:43.674Z,1029.47
2019-02-23T09:23:43.643Z,1029.42
2019-02-23T09:24:43.615Z,1029.51
2019-02-23T09:25:43.589Z,1029.41
2019-02-23T09:26:43.559Z,1029.36
2019-02-23T09:27:43.528Z,1029.45
2019-02-23T09:28:43.503Z,1029.43
2019-02-23T09:29:43.471Z,1029.48
2019-02-23T09:30:43.444Z,1029.47
2019-02-23T09:31:43.417Z,1029.52
2019-02-23T09:32:43.386Z,1029.39
2019-02-23T09:33:43.359Z,1029.49
2019-02-23T09:34:43.327Z,1029.66
2019-02-23T09:35:43.301Z,1029.43
2019-02-23T09:36:43.272Z,1029.43
2019-02-23T09:37:43.243Z,1029.54
2019-02-23T09:38:43.216Z,1029.58
2019-02-23T09:39:43.191Z,1029.58
2019-02-23T09:40:43.159Z,1029.57
2019-02-23T09:41:43.134Z,1029.56
2019-02-23T09:42:43.104Z,1029.61
2019-02-23T09:43:43.074Z,1029.61
2019-02-23T09:44:43.051Z,1029.60
2019-02-23T09:45:43.022Z,1029.63
2019-02-23T10:22:42.059Z,1030.08
2019-02-23T10:23:42.032Z,1030.09
2019-02-23T10:24:42.008Z,1030.18
2019-02-23T10:27:41.929Z,1030.16
2019-02-23T10:29:41.882Z,1030.22
2019-02-23T10:30:41.856Z,1030.22
2019-02-23T10:32:41.806Z,1030.20
2019-02-23T10:33:47.570Z,1030.10
2019-02-23T10:34:41.754Z,1030.03
2019-02-23T10:35:41.731Z,1030.07
2019-02-23T10:36:41.705Z,1030.01
2019-02-23T10:37:41.681Z,1029.97
2019-02-23T10:38:41.657Z,1030.00
2019-02-23T10:39:41.630Z,1029.99
2019-02-23T10:40:41.608Z,1029.93
2019-02-23T10:41:41.583Z,1029.91
